Time;durP1;ratioP1;P1;durP2;ratioP2;P2;SDS_P1;SDS_P2;PMS_P1;PMS_P2;Temp;Humidity;BMP_temperature;BMP_pressure;BME280_temperature;BME280_humidity;BME280_pressure;Samples;Min_cycle;Max_cycle;Signal;HPM_P1;HPM_P2
2024/04/09 00:01:43;;;;;;;;;;;;;;;17.53;80.12;96672.88;5482507;26;19962;-48
2024/04/09 00:04:09;;;;;;;;;;;;;;;17.30;80.11;96672.63;5470797;26;20233;-49
2024/04/09 00:06:34;;;;;;;;;;;;;;;17.47;78.86;96674.38;5476990;26;19993;-48
2024/04/09 00:09:00;;;;;;;;;;;;;;;17.32;77.24;96680.38;5483143;26;19978;-48
2024/04/09 00:11:25;;;;;;;;;;;;;;;17.27;80.37;96672.97;5488023;26;20005;-49
2024/04/09 00:13:54;;;;;;;;;;;;;;;17.29;80.51;96665.72;5485743;26;19969;-50
2024/04/09 00:16:22;;;;;;;;;;;;;;;17.23;79.34;96661.09;5489248;26;19928;-49
2024/04/09 00:18:48;;;;;;;;;;;;;;;17.03;80.88;96669.38;5454617;26;20010;-48
2024/04/09 00:21:13;;;;;;;;;;;;;;;17.15;80.43;96678.66;5482015;26;19928;-49
2024/04/09 00:23:39;;;;;;;;;;;;;;;16.94;82.57;96675.59;5482569;26;19987;-49
2024/04/09 00:26:04;;;;;;;;;;;;;;;16.75;83.04;96675.84;5485258;26;19928;-48
2024/04/09 00:28:30;;;;;;;;;;;;;;;16.85;81.27;96675.72;5489638;26;20780;-50
2024/04/09 00:30:56;;;;;;;;;;;;;;;17.13;79.28;96676.16;5482153;26;20269;-49
2024/04/09 00:33:23;;;;;;;;;;;;;;;17.49;76.31;96677.66;5486812;26;19997;-48
2024/04/09 00:35:51;;;;;;;;;;;;;;;17.34;74.65;96673.97;5477581;26;19962;-48
2024/04/09 00:38:19;;;;;;;;;;;;;;;16.92;79.11;96668.84;5484742;26;19935;-49
2024/04/09 00:40:45;;;;;;;;;;;;;;;16.83;79.89;96662.72;5474273;26;19976;-49
2024/04/09 00:43:12;;;;;;;;;;;;;;;16.89;78.08;96666.56;5477610;26;19936;-49
2024/04/09 00:45:38;;;;;;;;;;;;;;;16.87;77.68;96661.44;5483401;26;20010;-49
2024/04/09 00:48:03;;;;;;;;;;;;;;;16.78;79.22;96672.06;5472654;26;19959;-50
2024/04/09 00:50:29;;;;;;;;;;;;;;;16.97;78.49;96674.47;5476781;26;19958;-49
2024/04/09 00:52:55;;;;;;;;;;;;;;;16.99;76.11;96674.13;5471491;26;19929;-49
2024/04/09 00:55:25;;;;;;;;;;;;;;;16.94;77.44;96675.59;5481872;26;19959;-48
2024/04/09 00:57:52;;;;;;;;;;;;;;;17.49;71.96;96677.66;5478304;26;19985;-48
2024/04/09 01:00:17;;;;;;;;;;;;;;;17.10;77.57;96671.25;5480103;26;20226;-49
2024/04/09 01:02:43;;;;;;;;;;;;;;;17.07;79.24;96673.38;5473593;26;19958;-48
2024/04/09 01:05:09;;;;;;;;;;;;;;;16.93;79.69;96680.03;5473498;26;19928;-49
2024/04/09 01:07:34;;;;;;;;;;;;;;;16.96;81.25;96680.72;5480975;26;20409;-50
2024/04/09 01:09:59;;;;;;;;;;;;;;;16.97;78.61;96669.22;5476157;26;19994;-49
2024/04/09 01:12:25;;;;;;;;;;;;;;;16.76;79.41;96671.41;5481425;26;19935;-49
2024/04/09 01:14:50;;;;;;;;;;;;;;;16.87;79.66;96679.00;5483684;26;20511;-50
2024/04/09 01:17:15;;;;;;;;;;;;;;;16.97;81.91;96669.22;5481391;26;20214;-49
2024/04/09 01:19:41;;;;;;;;;;;;;;;17.06;80.90;96659.38;5479454;26;20302;-48
2024/04/09 01:22:06;;;;;;;;;;;;;;;17.34;79.30;96660.81;5480042;26;20047;-49
2024/04/09 01:24:34;;;;;;;;;;;;;;;17.05;79.49;96663.00;5479459;26;19939;-49
2024/04/09 01:26:59;;;;;;;;;;;;;;;17.18;79.72;96663.38;5474164;26;19928;-49
2024/04/09 01:29:26;;;;;;;;;;;;;;;17.11;80.32;96662.38;5485268;26;19991;-48
2024/04/09 01:31:52;;;;;;;;;;;;;;;16.88;80.86;96657.84;5478158;26;19972;-48
2024/04/09 01:34:18;;;;;;;;;;;;;;;16.98;82.65;96652.47;5478637;26;19966;-49
2024/04/09 01:36:43;;;;;;;;;;;;;;;16.89;81.43;96661.31;5475308;26;19940;-48
2024/04/09 01:39:08;;;;;;;;;;;;;;;17.15;79.00;96657.63;5480006;26;19945;-49
2024/04/09 01:41:37;;;;;;;;;;;;;;;17.05;80.43;96657.75;5484527;26;19978;-49
2024/04/09 01:44:02;;;;;;;;;;;;;;;17.03;82.36;96657.09;5470484;26;19943;-48
2024/04/09 01:46:28;;;;;;;;;;;;;;;16.95;82.68;96658.84;5454885;26;19936;-49
2024/04/09 01:48:53;;;;;;;;;;;;;;;17.09;82.39;96660.88;5476871;26;19956;-50
2024/04/09 01:51:19;;;;;;;;;;;;;;;16.98;81.12;96669.06;5484978;26;19970;-49
2024/04/09 01:53:45;;;;;;;;;;;;;;;17.35;81.08;96654.56;5481537;26;20386;-48
2024/04/09 01:56:10;;;;;;;;;;;;;;;17.21;84.01;96667.50;5473590;26;20060;-47
2024/04/09 01:58:35;;;;;;;;;;;;;;;17.20;83.70;96660.59;5478522;26;20239;-47
2024/04/09 02:01:09;;;;;;;;;;;;;;;16.96;85.09;96670.19;5478332;26;19987;-47
2024/04/09 02:03:34;;;;;;;;;;;;;;;16.96;85.95;96662.31;5482112;26;19927;-47
2024/04/09 02:06:00;;;;;;;;;;;;;;;16.82;86.54;96670.78;5471981;26;20406;-47
2024/04/09 02:08:26;;;;;;;;;;;;;;;16.77;87.68;96673.06;5489149;26;19980;-48
2024/04/09 02:10:51;;;;;;;;;;;;;;;16.77;89.90;96679.13;5481126;26;20419;-48
2024/04/09 02:13:17;;;;;;;;;;;;;;;16.79;87.98;96678.97;5480848;26;19936;-49
2024/04/09 02:15:44;;;;;;;;;;;;;;;16.78;89.35;96685.22;5474127;26;19936;-47
2024/04/09 02:18:10;;;;;;;;;;;;;;;16.85;87.84;96675.72;5475309;26;20049;-48
2024/04/09 02:20:36;;;;;;;;;;;;;;;17.02;88.35;96693.22;5481823;26;19962;-47
2024/04/09 02:23:03;;;;;;;;;;;;;;;16.72;89.41;96699.81;5481643;26;19932;-47
2024/04/09 02:25:29;;;;;;;;;;;;;;;16.74;90.29;96694.38;5478469;26;19936;-48
2024/04/09 02:27:54;;;;;;;;;;;;;;;16.82;90.09;96691.81;5471090;26;19928;-48
2024/04/09 02:30:19;;;;;;;;;;;;;;;16.97;86.45;96685.00;5475938;26;19939;-47
2024/04/09 02:32:45;;;;;;;;;;;;;;;16.86;86.16;96683.47;5480272;26;20349;-48
2024/04/09 02:35:10;;;;;;;;;;;;;;;16.62;86.71;96685.13;5482249;26;19966;-47
2024/04/09 02:37:36;;;;;;;;;;;;;;;16.69;87.28;96691.41;5483383;26;19929;-47
2024/04/09 02:40:05;;;;;;;;;;;;;;;16.76;85.54;96690.63;5479960;26;19928;-47
2024/04/09 02:42:30;;;;;;;;;;;;;;;16.66;84.38;96691.72;5480823;26;19964;-47
2024/04/09 02:44:55;;;;;;;;;;;;;;;16.79;85.01;96692.94;5483341;26;19980;-47
2024/04/09 02:47:21;;;;;;;;;;;;;;;16.76;85.73;96681.94;5476839;26;20000;-47
2024/04/09 02:49:46;;;;;;;;;;;;;;;16.55;88.84;96687.53;5487843;26;19967;-52
2024/04/09 02:52:12;;;;;;;;;;;;;;;16.51;88.03;96693.25;5487010;26;19998;-51
2024/04/09 02:54:39;;;;;;;;;;;;;;;16.54;85.24;96690.31;5479257;26;20293;-49
2024/04/09 02:57:04;;;;;;;;;;;;;;;16.38;86.32;96698.09;5483523;26;19939;-50
2024/04/09 02:59:29;;;;;;;;;;;;;;;16.32;87.18;96693.44;5484667;26;20044;-47
2024/04/09 03:01:55;;;;;;;;;;;;;;;16.27;87.32;96695.69;5487049;26;19936;-48
2024/04/09 03:04:20;;;;;;;;;;;;;;;16.54;88.52;96700.81;5484875;26;19958;-49
2024/04/09 03:06:45;;;;;;;;;;;;;;;16.50;86.50;96700.31;5482021;26;20272;-49
2024/04/09 03:09:10;;;;;;;;;;;;;;;16.29;87.75;96706.88;5479217;26;19935;-51
2024/04/09 03:11:36;;;;;;;;;;;;;;;16.35;86.21;96698.38;5484655;26;19973;-50
2024/04/09 03:14:06;;;;;;;;;;;;;;;16.11;86.35;96701.66;5482064;26;19966;-50
2024/04/09 03:16:32;;;;;;;;;;;;;;;16.04;88.22;96699.78;5467521;26;19974;-49
2024/04/09 03:18:57;;;;;;;;;;;;;;;15.95;87.92;96698.06;5469488;26;20193;-50
2024/04/09 03:21:22;;;;;;;;;;;;;;;16.10;88.14;96701.78;5482977;26;19962;-47
2024/04/09 03:23:47;;;;;;;;;;;;;;;15.99;88.45;96709.88;5483414;26;19962;-47
2024/04/09 03:26:13;;;;;;;;;;;;;;;15.84;89.17;96714.03;5478022;26;19932;-47
2024/04/09 03:28:38;;;;;;;;;;;;;;;15.95;88.62;96725.13;5479251;26;19943;-49
2024/04/09 03:31:03;;;;;;;;;;;;;;;15.81;89.13;96717.78;5478816;26;20539;-50
2024/04/09 03:33:29;;;;;;;;;;;;;;;15.58;91.81;96718.34;5484093;26;19934;-49
2024/04/09 03:35:55;;;;;;;;;;;;;;;15.62;92.19;96714.47;5474721;26;19994;-51
2024/04/09 03:38:20;;;;;;;;;;;;;;;15.73;90.81;96719.47;5490100;26;19928;-50
2024/04/09 03:40:59;;;;;;;;;;;;;;;15.49;90.63;96724.50;5482649;26;19988;-51
2024/04/09 03:43:25;;;;;;;;;;;;;;;15.85;88.71;96734.03;5477210;26;19964;-51
2024/04/09 03:46:00;;;;;;;;;;;;;;;15.84;87.30;96729.78;5478350;26;19984;-50
2024/04/09 03:48:25;;;;;;;;;;;;;;;15.56;89.35;96736.03;5474210;26;19998;-51
2024/04/09 03:50:50;;;;;;;;;;;;;;;15.64;88.25;96733.50;5483011;26;19928;-49
2024/04/09 03:53:15;;;;;;;;;;;;;;;15.56;86.96;96736.03;5480497;26;19940;-49
2024/04/09 03:55:41;;;;;;;;;;;;;;;15.62;86.85;96740.69;5479105;26;19969;-52
2024/04/09 03:58:06;;;;;;;;;;;;;;;15.84;87.03;96746.31;5478429;26;19936;-50
2024/04/09 04:00:31;;;;;;;;;;;;;;;15.73;88.43;96753.59;5484613;26;20002;-49
2024/04/09 04:02:56;;;;;;;;;;;;;;;15.53;90.68;96757.31;5485033;26;20212;-50
2024/04/09 04:05:22;;;;;;;;;;;;;;;15.43;91.94;96764.41;5483276;26;19960;-49
2024/04/09 04:07:47;;;;;;;;;;;;;;;15.51;92.66;96769.75;5487393;26;19964;-51
2024/04/09 04:10:13;;;;;;;;;;;;;;;15.46;92.84;96771.97;5476958;26;19962;-49
2024/04/09 04:12:40;;;;;;;;;;;;;;;15.51;92.79;96785.47;5480066;26;20308;-50
2024/04/09 04:15:05;;;;;;;;;;;;;;;15.86;87.19;96790.78;5476200;26;19928;-49
2024/04/09 04:17:30;;;;;;;;;;;;;;;15.82;87.97;96794.69;5473245;26;20046;-50
2024/04/09 04:19:56;;;;;;;;;;;;;;;15.80;86.33;96791.38;5479816;26;19969;-51
2024/04/09 04:22:21;;;;;;;;;;;;;;;15.27;91.61;96803.47;5477456;26;20285;-50
2024/04/09 04:24:46;;;;;;;;;;;;;;;15.33;94.79;96802.94;5485894;26;19993;-50
2024/04/09 04:27:12;;;;;;;;;;;;;;;15.37;94.91;96804.31;5474975;26;19981;-50
2024/04/09 04:29:37;;;;;;;;;;;;;;;15.05;97.50;96804.69;5478802;26;19970;-49
2024/04/09 04:32:02;;;;;;;;;;;;;;;15.15;97.05;96805.47;5474170;26;20339;-50
2024/04/09 04:34:27;;;;;;;;;;;;;;;15.51;94.55;96811.69;5484142;26;19969;-50
2024/04/09 04:36:53;;;;;;;;;;;;;;;15.30;92.90;96813.69;5483799;26;19971;-50
2024/04/09 04:39:19;;;;;;;;;;;;;;;14.97;95.21;96827.31;5470324;26;19964;-49
2024/04/09 04:41:46;;;;;;;;;;;;;;;15.12;96.12;96815.41;5484061;26;19978;-51
2024/04/09 04:44:11;;;;;;;;;;;;;;;15.15;96.19;96822.97;5474330;26;20279;-51
2024/04/09 04:46:36;;;;;;;;;;;;;;;15.25;94.73;96831.66;5476226;26;20045;-50
2024/04/09 04:49:02;;;;;;;;;;;;;;;15.45;91.63;96835.88;5477657;26;20292;-48
2024/04/09 04:51:28;;;;;;;;;;;;;;;15.07;94.53;96843.84;5478879;26;19935;-47
2024/04/09 04:53:53;;;;;;;;;;;;;;;15.10;96.74;96849.63;5474947;26;19961;-50
2024/04/09 04:56:18;;;;;;;;;;;;;;;15.00;96.03;96864.56;5482500;26;20274;-50
2024/04/09 04:58:44;;;;;;;;;;;;;;;15.15;97.09;96871.00;5482848;26;19939;-49
2024/04/09 05:01:09;;;;;;;;;;;;;;;15.04;96.26;96872.97;5478793;26;20036;-49
2024/04/09 05:03:35;;;;;;;;;;;;;;;15.06;95.32;96878.88;5476475;26;19989;-49
2024/04/09 05:06:04;;;;;;;;;;;;;;;14.86;94.92;96887.72;5479987;26;20434;-51
2024/04/09 05:08:30;;;;;;;;;;;;;;;14.92;94.53;96892.41;5476940;26;19962;-50
2024/04/09 05:10:55;;;;;;;;;;;;;;;15.32;90.99;96887.81;5478452;26;20053;-49
2024/04/09 05:13:20;;;;;;;;;;;;;;;15.13;90.97;96879.97;5486182;26;20019;-49
2024/04/09 05:15:46;;;;;;;;;;;;;;;15.32;90.16;96887.81;5481021;26;20031;-49
2024/04/09 05:18:11;;;;;;;;;;;;;;;15.24;90.12;96898.16;5475828;26;19928;-49
2024/04/09 05:20:36;;;;;;;;;;;;;;;15.18;91.43;96903.97;5469032;26;20391;-51
2024/04/09 05:23:02;;;;;;;;;;;;;;;15.22;91.24;96921.88;5479969;26;19963;-50
2024/04/09 05:25:30;;;;;;;;;;;;;;;14.99;92.33;96924.94;5476074;26;19959;-50
2024/04/09 05:27:55;;;;;;;;;;;;;;;15.40;90.11;96924.63;5481021;26;20051;-50
2024/04/09 05:30:20;;;;;;;;;;;;;;;15.38;90.05;96937.91;5470523;26;19929;-50
2024/04/09 05:32:45;;;;;;;;;;;;;;;15.55;89.40;96938.97;5478891;26;19967;-50
2024/04/09 05:35:12;;;;;;;;;;;;;;;15.43;90.93;96966.31;5486425;26;19940;-50
2024/04/09 05:37:38;;;;;;;;;;;;;;;15.36;91.60;96970.47;5472868;26;19967;-52
2024/04/09 05:40:08;;;;;;;;;;;;;;;15.44;89.58;96973.22;5473584;26;19943;-50
2024/04/09 05:42:35;;;;;;;;;;;;;;;15.51;90.39;96974.31;5478665;26;19995;-51
2024/04/09 05:45:00;;;;;;;;;;;;;;;15.66;90.16;96970.25;5480383;26;19963;-48
2024/04/09 05:47:25;;;;;;;;;;;;;;;15.71;92.06;96973.28;5482831;26;19981;-48
2024/04/09 05:49:50;;;;;;;;;;;;;;;15.86;89.78;96966.59;5480587;26;19931;-49
2024/04/09 05:52:15;;;;;;;;;;;;;;;16.40;86.48;96974.53;5479685;26;19934;-47
2024/04/09 05:54:43;;;;;;;;;;;;;;;17.09;77.21;96974.59;5484542;26;19928;-50
2024/04/09 05:57:08;;;;;;;;;;;;;;;17.46;73.29;96972.59;5475417;26;19939;-49
2024/04/09 05:59:34;;;;;;;;;;;;;;;17.74;71.30;96982.03;5485112;26;20335;-49
2024/04/09 06:01:59;;;;;;;;;;;;;;;17.90;70.48;96981.28;5480198;26;19960;-50
2024/04/09 06:04:24;;;;;;;;;;;;;;;17.90;70.92;96989.19;5484247;26;19936;-50
2024/04/09 06:06:54;;;;;;;;;;;;;;;18.03;70.56;96993.06;5481191;26;20006;-51
2024/04/09 06:09:19;;;;;;;;;;;;;;;18.06;70.29;96989.28;5473935;26;20277;-49
2024/04/09 06:11:44;;;;;;;;;;;;;;;17.82;73.68;96999.66;5482027;26;19937;-50
2024/04/09 06:14:10;;;;;;;;;;;;;;;17.52;78.21;97003.56;5473147;26;20047;-50
2024/04/09 06:16:35;;;;;;;;;;;;;;;17.20;83.11;97005.09;5480511;26;19971;-49
2024/04/09 06:19:00;;;;;;;;;;;;;;;17.35;80.45;97001.78;5483905;26;19928;-49
2024/04/09 06:21:25;;;;;;;;;;;;;;;17.56;79.14;97010.19;5484209;26;19966;-50
2024/04/09 06:23:51;;;;;;;;;;;;;;;17.60;80.13;97010.72;5486269;26;19963;-50
2024/04/09 06:26:18;;;;;;;;;;;;;;;17.79;81.08;97015.78;5483862;26;20405;-49
2024/04/09 06:28:44;;;;;;;;;;;;;;;17.81;78.28;97019.91;5472815;26;20285;-50
2024/04/09 06:31:09;;;;;;;;;;;;;;;18.00;79.47;97019.72;5475795;26;19928;-49
2024/04/09 06:33:35;;;;;;;;;;;;;;;18.55;75.69;97021.00;5484416;26;19968;-47
2024/04/09 06:36:00;;;;;;;;;;;;;;;18.86;72.60;97018.63;5475540;26;19939;-49
2024/04/09 06:38:25;;;;;;;;;;;;;;;19.29;71.34;97032.41;5484765;26;19966;-48
2024/04/09 06:40:54;;;;;;;;;;;;;;;19.43;71.24;97037.03;5479135;26;19997;-48
2024/04/09 06:43:19;;;;;;;;;;;;;;;20.67;67.19;97038.19;5470758;26;19961;-48
2024/04/09 06:45:44;;;;;;;;;;;;;;;21.19;65.01;97036.59;5477193;26;20021;-47
2024/04/09 06:48:10;;;;;;;;;;;;;;;21.88;63.14;97047.03;5470616;26;19983;-47
2024/04/09 06:50:36;;;;;;;;;;;;;;;21.22;62.90;97049.50;5479920;26;19985;-47
2024/04/09 06:53:01;;;;;;;;;;;;;;;21.16;62.22;97039.59;5474790;26;20051;-48
2024/04/09 06:55:26;;;;;;;;;;;;;;;21.11;62.94;97044.59;5486542;26;19989;-48
2024/04/09 06:57:51;;;;;;;;;;;;;;;21.35;62.75;97044.44;5484287;26;20064;-49
2024/04/09 07:00:17;;;;;;;;;;;;;;;22.09;61.03;97044.50;5482907;26;20248;-51
2024/04/09 07:02:43;;;;;;;;;;;;;;;22.21;60.41;97058.97;5480652;26;19927;-48
2024/04/09 07:05:09;;;;;;;;;;;;;;;22.43;60.08;97058.09;5472955;26;19962;-48
2024/04/09 07:07:34;;;;;;;;;;;;;;;21.65;60.73;97072.66;5484430;26;19982;-48
2024/04/09 07:10:00;;;;;;;;;;;;;;;22.16;60.33;97066.63;5478796;26;19969;-48
2024/04/09 07:12:26;;;;;;;;;;;;;;;22.42;60.25;97077.69;5473398;26;19928;-48
2024/04/09 07:14:51;;;;;;;;;;;;;;;22.82;59.14;97085.19;5484551;26;19936;-50
2024/04/09 07:17:16;;;;;;;;;;;;;;;22.96;57.95;97086.19;5478980;26;19958;-49
2024/04/09 07:19:42;;;;;;;;;;;;;;;23.25;57.17;97086.97;5469043;26;19936;-48
2024/04/09 07:22:09;;;;;;;;;;;;;;;23.64;56.87;97087.41;5478816;26;20359;-48
2024/04/09 07:24:35;;;;;;;;;;;;;;;23.17;57.83;97089.72;5480183;26;19977;-48
2024/04/09 07:27:01;;;;;;;;;;;;;;;22.37;59.30;97092.47;5476934;26;19958;-48
2024/04/09 07:29:28;;;;;;;;;;;;;;;21.50;61.33;97089.53;5483103;26;20371;-48
2024/04/09 07:31:53;;;;;;;;;;;;;;;21.20;62.80;97104.44;5482283;26;19927;-49
2024/04/09 07:34:19;;;;;;;;;;;;;;;20.64;65.74;97109.09;5481735;26;19962;-48
2024/04/09 07:36:44;;;;;;;;;;;;;;;20.66;65.84;97113.22;5483818;26;19935;-48
2024/04/09 07:39:14;;;;;;;;;;;;;;;20.44;66.61;97128.97;5482293;26;19974;-48
2024/04/09 07:41:39;;;;;;;;;;;;;;;20.16;67.67;97139.09;5481796;26;19978;-48
2024/04/09 07:44:05;;;;;;;;;;;;;;;19.99;66.30;97145.31;5479591;26;20036;-49
2024/04/09 07:46:30;;;;;;;;;;;;;;;19.99;66.94;97153.25;5477215;26;19965;-50
2024/04/09 07:48:59;;;;;;;;;;;;;;;19.99;67.36;97155.88;5473808;26;19967;-49
2024/04/09 07:51:25;;;;;;;;;;;;;;;19.71;68.79;97159.84;5476117;26;19966;-49
2024/04/09 07:53:50;;;;;;;;;;;;;;;19.67;68.57;97161.16;5480960;26;20048;-48
2024/04/09 07:56:15;;;;;;;;;;;;;;;19.54;69.31;97167.88;5478217;26;19962;-49
2024/04/09 07:58:41;;;;;;;;;;;;;;;19.43;70.83;97174.28;5479754;26;19939;-51
2024/04/09 08:01:07;;;;;;;;;;;;;;;19.20;71.88;97175.88;5478806;26;19956;-49
2024/04/09 08:03:32;;;;;;;;;;;;;;;19.25;71.81;97178.84;5476799;26;19971;-48
2024/04/09 08:05:57;;;;;;;;;;;;;;;19.13;73.04;97200.38;5477534;26;20376;-51
2024/04/09 08:08:22;;;;;;;;;;;;;;;18.71;75.61;97216.13;5481147;26;20031;-49
2024/04/09 08:10:48;;;;;;;;;;;;;;;18.59;76.76;97222.66;5482805;26;19970;-50
2024/04/09 08:13:14;;;;;;;;;;;;;;;18.45;77.21;97241.66;5476461;26;20261;-49
2024/04/09 08:15:39;;;;;;;;;;;;;;;18.23;78.47;97247.38;5481067;26;19962;-52
2024/04/09 08:18:05;;;;;;;;;;;;;;;17.69;79.10;97255.41;5473691;26;20641;-48
2024/04/09 08:20:30;;;;;;;;;;;;;;;17.30;78.67;97277.59;5481824;26;19970;-48
2024/04/09 08:22:55;;;;;;;;;;;;;;;16.90;79.89;97291.16;5482535;26;19961;-48
2024/04/09 08:25:20;;;;;;;;;;;;;;;16.78;79.31;97306.28;5485799;26;19962;-48
2024/04/09 08:27:45;;;;;;;;;;;;;;;16.79;77.39;97312.34;5483189;26;19984;-47
2024/04/09 08:30:17;;;;;;;;;;;;;;;16.80;75.20;97321.88;5475174;26;19943;-48
2024/04/09 08:32:43;;;;;;;;;;;;;;;16.31;75.32;97319.41;5478962;26;20061;-49
2024/04/09 08:35:08;;;;;;;;;;;;;;;16.42;73.02;97340.31;5484980;26;20380;-48
2024/04/09 08:37:33;;;;;;;;;;;;;;;16.14;71.13;97356.81;5488135;26;19984;-48
2024/04/09 08:39:59;;;;;;;;;;;;;;;16.16;71.05;97360.16;5487143;26;19928;-47
2024/04/09 08:42:27;;;;;;;;;;;;;;;15.96;70.42;97368.97;5484734;26;19982;-47
2024/04/09 08:44:55;;;;;;;;;;;;;;;15.65;71.13;97381.31;5480802;26;19962;-47
2024/04/09 08:47:20;;;;;;;;;;;;;;;15.75;71.00;97408.41;5474299;26;20295;-48
2024/04/09 08:49:47;;;;;;;;;;;;;;;15.54;70.81;97409.41;5473326;26;19929;-46
2024/04/09 08:52:13;;;;;;;;;;;;;;;15.62;70.95;97427.97;5476627;26;20004;-49
2024/04/09 08:54:40;;;;;;;;;;;;;;;15.54;71.36;97430.38;5481135;26;20276;-46
2024/04/09 08:57:05;;;;;;;;;;;;;;;15.55;72.19;97443.38;5473578;26;20400;-47
2024/04/09 08:59:30;;;;;;;;;;;;;;;15.31;72.31;97450.66;5474868;26;19967;-47
2024/04/09 09:02:01;;;;;;;;;;;;;;;15.38;72.60;97451.00;5461924;26;20013;-48
2024/04/09 09:04:33;;;;;;;;;;;;;;;15.21;71.69;97459.41;5478352;26;19993;-48
2024/04/09 09:06:58;;;;;;;;;;;;;;;14.90;70.09;97445.41;5489642;26;19936;-47
2024/04/09 09:09:25;;;;;;;;;;;;;;;15.15;69.84;97436.31;5478791;26;20239;-48
2024/04/09 09:11:52;;;;;;;;;;;;;;;14.94;70.33;97435.50;5483207;26;20049;-48
2024/04/09 09:14:18;;;;;;;;;;;;;;;15.23;69.25;97436.53;5477874;26;20391;-48
2024/04/09 09:16:43;;;;;;;;;;;;;;;15.20;68.04;97455.97;5486175;26;20002;-48
2024/04/09 09:19:09;;;;;;;;;;;;;;;15.04;68.44;97449.50;5478756;26;20043;-47
2024/04/09 09:21:34;;;;;;;;;;;;;;;15.08;67.93;97464.00;5486662;26;19990;-47
2024/04/09 09:24:00;;;;;;;;;;;;;;;15.10;68.44;97462.13;5482226;26;20372;-48
2024/04/09 09:26:25;;;;;;;;;;;;;;;14.70;69.20;97485.50;5481512;26;19966;-47
2024/04/09 09:29:01;;;;;;;;;;;;;;;14.62;69.16;97494.94;5480601;26;19960;-47
2024/04/09 09:31:26;;;;;;;;;;;;;;;14.80;68.38;97517.03;5482939;26;20328;-47
2024/04/09 09:33:55;;;;;;;;;;;;;;;14.85;68.67;97533.22;5485277;26;19992;-47
2024/04/09 09:36:20;;;;;;;;;;;;;;;14.86;68.50;97542.72;5485592;26;20076;-48
2024/04/09 09:38:46;;;;;;;;;;;;;;;14.80;68.00;97548.47;5485435;26;19973;-49
2024/04/09 09:41:11;;;;;;;;;;;;;;;14.83;68.17;97556.09;5483484;26;19992;-47
2024/04/09 09:43:37;;;;;;;;;;;;;;;14.97;67.20;97574.97;5480308;26;19994;-49
2024/04/09 09:46:03;;;;;;;;;;;;;;;14.82;67.27;97583.25;5487522;26;20262;-48
2024/04/09 09:48:29;;;;;;;;;;;;;;;14.96;67.15;97585.59;5465824;26;20341;-48
2024/04/09 09:50:56;;;;;;;;;;;;;;;14.90;66.59;97601.81;5484518;26;20378;-48
2024/04/09 09:53:21;;;;;;;;;;;;;;;14.80;67.50;97593.00;5486029;26;19937;-49
2024/04/09 09:55:53;;;;;;;;;;;;;;;14.97;66.76;97600.34;5488608;26;20014;-48
2024/04/09 09:58:20;;;;;;;;;;;;;;;14.96;66.91;97599.50;5484716;26;19936;-48
2024/04/09 10:00:47;;;;;;;;;;;;;;;15.04;66.50;97614.63;5476922;26;19965;-49
2024/04/09 10:03:12;;;;;;;;;;;;;;;14.74;66.21;97622.28;5484130;26;20018;-48
2024/04/09 10:05:39;;;;;;;;;;;;;;;14.76;66.22;97631.72;5474903;26;19935;-48
2024/04/09 10:08:14;;;;;;;;;;;;;;;14.85;65.58;97630.16;5485980;26;19959;-48
2024/04/09 10:10:41;;;;;;;;;;;;;;;14.96;65.51;97633.59;5482590;26;19967;-48
2024/04/09 10:13:07;;;;;;;;;;;;;;;15.14;65.02;97633.91;5480043;26;19928;-48
2024/04/09 10:15:33;;;;;;;;;;;;;;;15.21;64.73;97632.44;5483303;26;19994;-48
2024/04/09 10:18:04;;;;;;;;;;;;;;;15.36;64.98;97644.38;5487331;26;20387;-49
2024/04/09 10:20:31;;;;;;;;;;;;;;;15.39;64.61;97636.25;5480544;26;20027;-48
2024/04/09 10:22:57;;;;;;;;;;;;;;;15.63;64.28;97635.06;5469738;26;19936;-48
2024/04/09 10:25:30;;;;;;;;;;;;;;;15.90;63.47;97631.97;5476644;26;19975;-48
2024/04/09 10:28:02;;;;;;;;;;;;;;;15.46;63.26;97640.88;5478694;26;20272;-48
2024/04/09 10:30:28;;;;;;;;;;;;;;;15.52;63.48;97637.75;5484264;26;19957;-48
2024/04/09 10:32:57;;;;;;;;;;;;;;;15.64;63.66;97634.09;5476126;26;20366;-49
2024/04/09 10:35:22;;;;;;;;;;;;;;;15.74;63.26;97636.81;5480468;26;19975;-48
2024/04/09 10:37:48;;;;;;;;;;;;;;;15.43;64.31;97635.06;5462265;26;20282;-48
2024/04/09 10:40:13;;;;;;;;;;;;;;;15.28;64.09;97649.34;5474687;26;19935;-50
2024/04/09 10:42:38;;;;;;;;;;;;;;;14.92;63.38;97649.69;5483373;26;20049;-48
2024/04/09 10:45:04;;;;;;;;;;;;;;;14.74;64.27;97638.00;5485280;26;20048;-48
2024/04/09 10:47:31;;;;;;;;;;;;;;;14.81;64.21;97647.06;5478377;26;20319;-47
2024/04/09 10:49:56;;;;;;;;;;;;;;;14.76;65.09;97644.81;5486099;26;19943;-48
2024/04/09 10:52:22;;;;;;;;;;;;;;;14.96;64.42;97656.34;5482013;26;20025;-47
2024/04/09 10:54:47;;;;;;;;;;;;;;;14.47;64.57;97661.13;5486046;26;20027;-48
2024/04/09 10:57:12;;;;;;;;;;;;;;;14.59;64.41;97671.50;5486306;26;19966;-48
2024/04/09 10:59:37;;;;;;;;;;;;;;;14.85;64.48;97672.06;5473032;26;19958;-48
2024/04/09 11:02:06;;;;;;;;;;;;;;;14.69;64.14;97693.41;5475814;26;19972;-48
2024/04/09 11:04:33;;;;;;;;;;;;;;;14.80;63.19;97684.69;5474952;26;20484;-47
2024/04/09 11:07:00;;;;;;;;;;;;;;;14.69;63.06;97695.19;5483910;26;19970;-48
2024/04/09 11:09:25;;;;;;;;;;;;;;;14.65;63.87;97696.38;5483464;26;19967;-48
2024/04/09 11:11:51;;;;;;;;;;;;;;;14.59;63.71;97702.09;5485036;26;20038;-49
2024/04/09 11:14:16;;;;;;;;;;;;;;;14.52;63.61;97711.38;5483627;26;19963;-49
2024/04/09 11:16:48;;;;;;;;;;;;;;;14.55;63.86;97730.28;5487040;26;19970;-48
2024/04/09 11:19:18;;;;;;;;;;;;;;;14.39;64.52;97718.47;5482084;26;19935;-49
2024/04/09 11:21:44;;;;;;;;;;;;;;;14.46;63.47;97732.78;5480003;26;20392;-48
2024/04/09 11:24:10;;;;;;;;;;;;;;;14.64;63.58;97736.63;5482227;26;20044;-47
2024/04/09 11:26:35;;;;;;;;;;;;;;;15.23;63.73;97738.06;5472758;26;19974;-51
2024/04/09 11:29:01;;;;;;;;;;;;;;;14.88;63.67;97739.94;5480796;26;19993;-48
2024/04/09 11:31:26;;;;;;;;;;;;;;;14.70;63.35;97747.44;5477087;26;19986;-48
2024/04/09 11:33:51;;;;;;;;;;;;;;;14.45;63.56;97747.66;5477746;26;19981;-49
2024/04/09 11:36:17;;;;;;;;;;;;;;;14.13;63.44;97740.50;5468648;26;19966;-48
2024/04/09 11:38:42;;;;;;;;;;;;;;;13.96;64.69;97759.25;5479450;26;19942;-48
2024/04/09 11:41:08;;;;;;;;;;;;;;;13.92;64.60;97765.66;5480208;26;20267;-48
2024/04/09 11:43:33;;;;;;;;;;;;;;;13.91;64.50;97777.88;5484240;26;19971;-48
2024/04/09 11:46:00;;;;;;;;;;;;;;;13.74;64.99;97782.69;5480496;26;20235;-48
2024/04/09 11:48:25;;;;;;;;;;;;;;;13.71;64.93;97770.66;5479349;26;20032;-48
2024/04/09 11:50:50;;;;;;;;;;;;;;;13.98;64.66;97773.06;5485581;26;20386;-48
2024/04/09 11:53:17;;;;;;;;;;;;;;;13.80;65.33;97779.63;5475761;26;19977;-48
2024/04/09 11:55:43;;;;;;;;;;;;;;;13.94;65.46;97776.84;5486298;26;20249;-48
2024/04/09 11:58:09;;;;;;;;;;;;;;;13.89;65.33;97786.81;5487352;26;19927;-47
2024/04/09 12:00:35;;;;;;;;;;;;;;;13.75;65.60;97797.41;5489901;26;20016;-48
2024/04/09 12:03:02;;;;;;;;;;;;;;;13.70;64.87;97795.16;5489869;26;19927;-49
2024/04/09 12:05:27;;;;;;;;;;;;;;;13.71;65.74;97791.56;5489253;26;19939;-48
2024/04/09 12:07:52;;;;;;;;;;;;;;;13.63;65.14;97793.09;5489156;26;20046;-48
2024/04/09 12:10:17;;;;;;;;;;;;;;;13.89;65.67;97774.56;5489551;26;19996;-48
2024/04/09 12:12:43;;;;;;;;;;;;;;;13.86;65.30;97784.41;5483925;26;20199;-49
2024/04/09 12:15:08;;;;;;;;;;;;;;;13.72;65.69;97790.66;5480405;26;19962;-50
2024/04/09 12:17:34;;;;;;;;;;;;;;;13.59;65.57;97797.72;5481541;26;19973;-49
2024/04/09 12:20:00;;;;;;;;;;;;;;;13.52;65.91;97793.88;5478077;26;20371;-49
2024/04/09 12:22:25;;;;;;;;;;;;;;;13.64;65.82;97794.75;5484929;26;19981;-47
2024/04/09 12:24:51;;;;;;;;;;;;;;;13.60;65.46;97793.31;5478690;26;19928;-48
2024/04/09 12:27:16;;;;;;;;;;;;;;;13.30;66.28;97800.72;5475036;26;19970;-48
2024/04/09 12:29:42;;;;;;;;;;;;;;;13.41;65.93;97809.47;5473554;26;19992;-48
2024/04/09 12:32:09;;;;;;;;;;;;;;;13.58;65.81;97816.13;5483827;26;19962;-48
2024/04/09 12:34:35;;;;;;;;;;;;;;;13.49;65.79;97796.69;5479029;26;20022;-48
2024/04/09 12:37:01;;;;;;;;;;;;;;;13.50;65.80;97802.75;5485404;26;19934;-47
2024/04/09 12:39:30;;;;;;;;;;;;;;;13.25;66.12;97802.81;5471016;26;20381;-48
2024/04/09 12:41:56;;;;;;;;;;;;;;;13.24;66.89;97801.16;5470049;26;19996;-48